Time;durP1;ratioP1;P1;durP2;ratioP2;P2;SDS_P1;SDS_P2;PMS_P1;PMS_P2;Temp;Humidity;BMP_temperature;BMP_pressure;BME280_temperature;BME280_humidity;BME280_pressure;Samples;Min_cycle;Max_cycle;Signal;HPM_P1;HPM_P2
2023/10/23 00:00:39;;;;;;;2.87;0.80;;;;;;;12.19;100.00;100759.03;4996200;28;20500;-66
2023/10/23 00:03:06;;;;;;;2.20;0.60;;;;;;;12.14;100.00;100768.09;4996309;28;20531;-66
2023/10/23 00:05:32;;;;;;;2.10;0.60;;;;;;;12.08;100.00;100766.59;4996271;28;20489;-66
2023/10/23 00:07:59;;;;;;;2.43;0.60;;;;;;;12.04;100.00;100773.75;4995771;28;20850;-67
2023/10/23 00:10:27;;;;;;;2.20;0.80;;;;;;;11.96;100.00;100774.50;4995979;28;20476;-67
2023/10/23 00:12:54;;;;;;;2.00;0.60;;;;;;;11.89;100.00;100774.09;4995985;28;20449;-66
2023/10/23 00:15:20;;;;;;;2.27;0.70;;;;;;;11.82;100.00;100775.34;4995707;28;20496;-66
2023/10/23 00:17:47;;;;;;;2.10;0.50;;;;;;;11.73;100.00;100777.13;4995972;28;20476;-66
2023/10/23 00:20:14;;;;;;;2.30;0.70;;;;;;;11.64;100.00;100770.78;5005748;28;21015;-66
2023/10/23 00:22:40;;;;;;;3.03;0.70;;;;;;;11.56;100.00;100782.38;5015054;28;20881;-66
2023/10/23 00:25:07;;;;;;;1.87;0.33;;;;;;;11.49;100.00;100779.25;5015035;28;20491;-67
2023/10/23 00:27:35;;;;;;;5.87;0.80;;;;;;;11.44;100.00;100782.88;5014885;28;20538;-66
2023/10/23 00:30:02;;;;;;;2.53;0.90;;;;;;;11.36;100.00;100781.66;5015442;28;20495;-66
2023/10/23 00:32:29;;;;;;;2.10;0.60;;;;;;;11.29;100.00;100775.84;5015008;28;20523;-66
2023/10/23 00:34:55;;;;;;;2.43;0.53;;;;;;;11.23;100.00;100779.75;5015376;28;20495;-66
2023/10/23 00:37:22;;;;;;;2.07;0.43;;;;;;;11.16;100.00;100778.56;5015280;28;20535;-66
2023/10/23 00:39:48;;;;;;;2.10;0.60;;;;;;;11.07;100.00;100784.66;5014487;28;21070;-67
2023/10/23 00:42:15;;;;;;;2.60;0.70;;;;;;;11.04;100.00;100784.44;5015354;28;20531;-67
2023/10/23 00:44:43;;;;;;;2.30;0.67;;;;;;;10.97;100.00;100778.59;5014578;28;20498;-67
2023/10/23 00:47:11;;;;;;;1.90;0.40;;;;;;;10.92;100.00;100781.41;5014950;28;20444;-67
2023/10/23 00:49:38;;;;;;;1.97;0.53;;;;;;;10.86;100.00;100776.09;5015395;28;20472;-67
2023/10/23 00:52:07;;;;;;;2.30;0.70;;;;;;;10.81;100.00;100778.09;5014660;28;20447;-67
2023/10/23 00:54:34;;;;;;;2.10;0.60;;;;;;;10.75;100.00;100776.53;5014637;28;20501;-67
2023/10/23 00:57:03;;;;;;;1.90;0.40;;;;;;;10.72;100.00;100774.44;5014594;28;20444;-67
2023/10/23 00:59:30;;;;;;;1.90;0.40;;;;;;;10.63;100.00;100785.16;5014209;28;20538;-67
2023/10/23 01:01:58;;;;;;;2.00;0.50;;;;;;;10.59;100.00;100778.72;5014287;28;20531;-67
2023/10/23 01:04:25;;;;;;;2.20;0.60;;;;;;;10.54;100.00;100781.53;5014407;28;20461;-67
2023/10/23 01:06:52;;;;;;;2.50;0.70;;;;;;;10.48;100.00;100778.06;5014114;28;20539;-67
2023/10/23 01:09:19;;;;;;;1.97;0.40;;;;;;;10.44;100.00;100787.06;5014467;28;20444;-66
2023/10/23 01:11:45;;;;;;;2.07;0.50;;;;;;;10.41;100.00;100787.69;5014030;28;20450;-66
2023/10/23 01:14:12;;;;;;;2.33;0.50;;;;;;;10.32;100.00;100793.75;5014744;28;20514;-66
2023/10/23 01:16:39;;;;;;;1.90;0.40;;;;;;;10.30;100.00;100781.59;5014474;28;20527;-67
2023/10/23 01:19:07;;;;;;;2.43;0.83;;;;;;;10.29;100.00;100791.63;5013904;28;20483;-67
2023/10/23 01:21:33;;;;;;;2.27;0.63;;;;;;;10.25;100.00;100797.94;5014573;28;20425;-66
2023/10/23 01:24:01;;;;;;;1.90;0.40;;;;;;;10.21;100.00;100789.56;5013925;28;20499;-66
2023/10/23 01:26:29;;;;;;;3.00;1.00;;;;;;;10.16;100.00;100789.63;5014054;28;20443;-66
2023/10/23 01:28:56;;;;;;;2.00;0.57;;;;;;;10.14;100.00;100791.00;5014280;28;20468;-66
2023/10/23 01:31:23;;;;;;;2.10;0.50;;;;;;;10.10;100.00;100788.91;5014134;28;21003;-66
2023/10/23 01:33:50;;;;;;;2.00;0.40;;;;;;;10.07;100.00;100786.78;5014176;28;20559;-67
2023/10/23 01:36:17;;;;;;;2.00;0.40;;;;;;;10.04;100.00;100792.78;5013663;28;20436;-66
2023/10/23 01:38:43;;;;;;;2.10;0.60;;;;;;;9.99;100.00;100797.44;5014176;28;20563;-66
2023/10/23 01:41:10;;;;;;;2.10;0.60;;;;;;;9.98;100.00;100806.69;5014120;28;20524;-66
2023/10/23 01:43:38;;;;;;;2.07;0.50;;;;;;;10.01;100.00;100808.81;5013550;28;21020;-66
2023/10/23 01:46:05;;;;;;;2.40;0.70;;;;;;;10.00;100.00;100807.19;5013693;28;20498;-66
2023/10/23 01:48:31;;;;;;;1.93;0.47;;;;;;;9.97;100.00;100800.47;5013812;28;20451;-66
2023/10/23 01:51:01;;;;;;;2.50;0.87;;;;;;;9.99;100.00;100800.97;5013633;28;20836;-67
2023/10/23 01:53:28;;;;;;;1.80;0.40;;;;;;;10.02;100.00;100802.28;5013692;28;20968;-67
2023/10/23 01:55:54;;;;;;;2.20;0.60;;;;;;;9.99;100.00;100800.16;5013558;28;20440;-65
2023/10/23 01:58:21;;;;;;;2.20;0.40;;;;;;;10.01;100.00;100801.50;5013730;28;20444;-65
2023/10/23 02:00:49;;;;;;;1.90;0.50;;;;;;;10.04;100.00;100809.00;5013541;28;20537;-65
2023/10/23 02:03:16;;;;;;;2.83;0.70;;;;;;;10.05;100.00;100812.53;5013941;28;20917;-65
2023/10/23 02:05:42;;;;;;;2.00;0.50;;;;;;;10.02;100.00;100808.50;5013744;28;20539;-65
2023/10/23 02:08:09;;;;;;;2.00;0.53;;;;;;;10.01;100.00;100798.00;5013323;28;20821;-65
2023/10/23 02:10:35;;;;;;;2.03;0.60;;;;;;;10.05;100.00;100805.22;5014441;28;20535;-65
2023/10/23 02:13:02;;;;;;;2.20;0.63;;;;;;;10.05;100.00;100805.22;5013410;28;20506;-65
2023/10/23 02:15:29;;;;;;;2.30;0.80;;;;;;;10.01;100.00;100806.09;5013660;28;20862;-64
2023/10/23 02:17:57;;;;;;;2.60;0.70;;;;;;;10.00;100.00;100804.47;5013349;28;20474;-64
2023/10/23 02:20:27;;;;;;;1.83;0.40;;;;;;;9.98;100.00;100806.69;5013170;28;20580;-64
2023/10/23 02:22:53;;;;;;;2.00;0.60;;;;;;;9.97;100.00;100805.06;5013259;28;20897;-65
2023/10/23 02:25:20;;;;;;;1.90;0.50;;;;;;;9.96;100.00;100804.28;5013806;28;20552;-65
2023/10/23 02:27:47;;;;;;;2.50;0.70;;;;;;;9.91;100.00;100806.22;5013199;28;20531;-65
2023/10/23 02:30:13;;;;;;;2.00;0.60;;;;;;;9.87;100.00;100808.69;5013703;28;20531;-65
2023/10/23 02:32:40;;;;;;;2.07;0.50;;;;;;;9.83;100.00;100810.41;5013649;28;20444;-65
2023/10/23 02:35:09;;;;;;;2.03;0.60;;;;;;;9.83;100.00;100823.94;5013420;28;20456;-65
2023/10/23 02:37:36;;;;;;;1.97;0.50;;;;;;;9.79;100.00;100821.00;5013672;28;20448;-65
2023/10/23 02:40:03;;;;;;;2.30;0.87;;;;;;;9.77;100.00;100830.47;5013362;28;20575;-65
2023/10/23 02:42:30;;;;;;;3.03;0.83;;;;;;;9.72;100.00;100830.53;5013510;28;20448;-65
2023/10/23 02:44:57;;;;;;;3.40;0.67;;;;;;;9.69;100.00;100831.09;5014110;28;20464;-65
2023/10/23 02:47:24;;;;;;;2.10;0.70;;;;;;;9.66;100.00;100837.91;5017033;28;20550;-65
2023/10/23 02:49:53;;;;;;;2.30;0.60;;;;;;;9.62;100.00;100834.19;5017437;28;20435;-65
2023/10/23 02:52:21;;;;;;;2.00;0.50;;;;;;;9.61;100.00;100846.09;5017193;28;20448;-65
2023/10/23 02:54:50;;;;;;;2.20;0.73;;;;;;;9.53;100.00;100854.84;5016798;28;20464;-65
2023/10/23 02:57:17;;;;;;;2.20;0.47;;;;;;;9.50;100.00;100850.00;5017158;28;20853;-65
2023/10/23 02:59:46;;;;;;;2.20;0.40;;;;;;;9.46;100.00;100844.34;5016699;28;20570;-65
2023/10/23 03:02:13;;;;;;;2.00;0.50;;;;;;;9.45;100.00;100852.75;5016767;28;20439;-65
2023/10/23 03:04:40;;;;;;;1.90;0.40;;;;;;;9.40;100.00;100852.81;5016507;28;20550;-65
2023/10/23 03:07:06;;;;;;;1.90;0.40;;;;;;;9.37;100.00;100847.97;5016346;28;20960;-65
2023/10/23 03:09:34;;;;;;;1.87;0.40;;;;;;;9.35;100.00;100856.38;5016721;28;20464;-65
2023/10/23 03:12:01;;;;;;;3.17;0.80;;;;;;;9.29;100.00;100860.19;5016513;28;20856;-65
2023/10/23 03:14:28;;;;;;;2.07;0.60;;;;;;;9.19;100.00;100855.72;5016787;28;20530;-65
2023/10/23 03:16:54;;;;;;;1.87;0.40;;;;;;;9.24;100.00;100862.97;5016558;28;20928;-65
2023/10/23 03:19:25;;;;;;;2.00;0.50;;;;;;;9.19;100.00;100860.31;5016290;28;20484;-65
2023/10/23 03:21:51;;;;;;;2.30;0.53;;;;;;;9.14;100.00;100858.47;5016185;28;20432;-65
2023/10/23 03:24:18;;;;;;;2.07;0.53;;;;;;;9.14;100.00;100850.34;5016335;28;20543;-65
2023/10/23 03:26:46;;;;;;;1.97;0.50;;;;;;;9.14;100.00;100860.38;5016236;28;20524;-65
2023/10/23 03:29:13;;;;;;;2.00;0.50;;;;;;;9.09;100.00;100866.63;5015972;28;21003;-65
2023/10/23 03:31:39;;;;;;;2.20;0.50;;;;;;;9.04;100.00;100869.38;5016197;28;20470;-65
2023/10/23 03:34:06;;;;;;;2.20;0.50;;;;;;;9.00;100.00;100873.72;5015857;28;20474;-65
2023/10/23 03:36:33;;;;;;;2.10;0.50;;;;;;;8.95;100.00;100871.06;5016084;28;20522;-65
2023/10/23 03:38:59;;;;;;;2.00;0.50;;;;;;;8.89;100.00;100878.38;5015766;28;20444;-66
2023/10/23 03:41:26;;;;;;;1.97;0.60;;;;;;;8.86;100.00;100872.75;5016012;28;20510;-65
2023/10/23 03:43:54;;;;;;;2.73;0.60;;;;;;;8.83;100.00;100871.44;5015924;28;20506;-66
2023/10/23 03:46:21;;;;;;;2.23;0.60;;;;;;;8.78;100.00;100866.88;5015995;28;20527;-66
2023/10/23 03:48:48;;;;;;;1.90;0.40;;;;;;;8.73;100.00;100864.22;5015850;28;20882;-65
2023/10/23 03:51:15;;;;;;;1.90;0.40;;;;;;;8.71;100.00;100871.78;5015633;28;20487;-65
2023/10/23 03:53:41;;;;;;;2.20;0.60;;;;;;;8.72;100.00;100867.16;5015732;28;20511;-65
2023/10/23 03:56:08;;;;;;;1.90;0.50;;;;;;;8.70;100.00;100870.16;5015981;28;20443;-65
2023/10/23 03:58:35;;;;;;;2.23;0.73;;;;;;;8.62;100.00;100865.34;5015761;28;20448;-66
2023/10/23 04:01:03;;;;;;;2.10;0.60;;;;;;;8.56;100.00;100869.19;5016161;28;20515;-66
2023/10/23 04:03:30;;;;;;;1.97;0.40;;;;;;;8.57;100.00;100868.09;5015900;28;20436;-65
2023/10/23 04:05:57;;;;;;;2.37;0.63;;;;;;;8.54;100.00;100872.19;5015498;28;20440;-65
2023/10/23 04:08:23;;;;;;;2.73;0.80;;;;;;;8.52;100.00;100873.53;5015845;28;20468;-65
2023/10/23 04:10:50;;;;;;;2.23;0.70;;;;;;;8.50;100.00;100870.28;5015452;28;20499;-65
2023/10/23 04:13:17;;;;;;;2.20;0.50;;;;;;;8.51;100.00;100869.22;5015593;28;20444;-65
2023/10/23 04:15:52;;;;;;;2.20;0.67;;;;;;;8.48;100.00;100881.38;5015299;28;20492;-65
2023/10/23 04:18:20;;;;;;;2.57;0.90;;;;;;;8.45;100.00;100870.31;5015096;28;20935;-65
2023/10/23 04:20:47;;;;;;;2.30;0.87;;;;;;;8.43;100.00;100880.63;5061615;23;20561;-71
2023/10/23 04:23:14;;;;;;;2.10;0.60;;;;;;;8.40;100.00;100876.56;5035570;28;20873;-70
2023/10/23 04:25:40;;;;;;;2.73;0.90;;;;;;;8.39;100.00;100883.06;5034563;28;20600;-71
2023/10/23 04:28:07;;;;;;;2.43;0.50;;;;;;;8.40;100.00;100889.25;5035110;28;20533;-71
2023/10/23 04:30:34;;;;;;;1.90;0.40;;;;;;;8.40;100.00;100895.47;5034964;28;20522;-71
2023/10/23 04:33:00;;;;;;;2.00;0.53;;;;;;;8.36;100.00;100894.38;5034787;28;20543;-71
2023/10/23 04:35:28;;;;;;;2.00;0.40;;;;;;;8.31;100.00;100897.91;5034418;28;21052;-71
2023/10/23 04:37:55;;;;;;;2.10;0.60;;;;;;;8.31;100.00;100897.09;5035285;28;20870;-71
2023/10/23 04:40:21;;;;;;;2.43;0.80;;;;;;;8.25;100.00;100899.03;5034733;28;20578;-71
2023/10/23 04:42:48;;;;;;;2.20;0.70;;;;;;;8.26;100.00;100899.84;5035067;28;20530;-71
2023/10/23 04:45:15;;;;;;;1.90;0.40;;;;;;;8.25;100.00;100895.53;5034702;28;20539;-71
2023/10/23 04:47:41;;;;;;;2.10;0.60;;;;;;;8.20;100.00;100901.75;5034687;28;20443;-71
2023/10/23 04:50:08;;;;;;;2.20;0.67;;;;;;;8.17;100.00;100898.78;5034886;28;20453;-71
2023/10/23 04:52:36;;;;;;;2.10;0.60;;;;;;;8.17;100.00;100902.28;5034562;28;20435;-71
2023/10/23 04:55:03;;;;;;;1.83;0.40;;;;;;;8.13;100.00;100901.22;5034127;28;20977;-71
2023/10/23 04:57:30;;;;;;;2.00;0.50;;;;;;;8.13;100.00;100903.13;5034150;28;20470;-71
2023/10/23 04:59:56;;;;;;;2.10;0.60;;;;;;;8.13;100.00;100903.13;5034437;28;20534;-71
2023/10/23 05:02:23;;;;;;;2.07;0.53;;;;;;;8.10;100.00;100904.47;5034312;28;20530;-71
2023/10/23 05:04:50;;;;;;;2.10;0.53;;;;;;;8.07;100.00;100913.94;5034652;28;20546;-70
2023/10/23 05:07:16;;;;;;;2.40;0.50;;;;;;;8.04;100.00;100906.41;5034182;28;20443;-71
2023/10/23 05:09:44;;;;;;;2.00;0.50;;;;;;;8.02;100.00;100913.16;5034522;28;20768;-71
2023/10/23 05:12:11;;;;;;;2.00;0.43;;;;;;;7.99;100.00;100911.00;5034150;28;20446;-71
2023/10/23 05:14:38;;;;;;;2.00;0.53;;;;;;;7.96;100.00;100915.06;5034288;28;20469;-71
2023/10/23 05:17:04;;;;;;;2.60;0.83;;;;;;;7.97;100.00;100910.47;5033749;28;20439;-71
2023/10/23 05:19:31;;;;;;;2.63;0.90;;;;;;;7.95;100.00;100916.13;5033819;28;20455;-71
2023/10/23 05:21:58;;;;;;;1.80;0.40;;;;;;;7.88;100.00;100912.13;5033689;28;20510;-71
2023/10/23 05:24:24;;;;;;;2.20;0.63;;;;;;;7.90;100.00;100915.34;5033962;28;20534;-69
2023/10/23 05:26:52;;;;;;;2.00;0.50;;;;;;;7.87;100.00;100915.91;5033822;28;20442;-71
2023/10/23 05:29:19;;;;;;;2.00;0.50;;;;;;;7.84;100.00;100928.06;5034209;28;20477;-70
2023/10/23 05:31:45;;;;;;;2.37;0.70;;;;;;;7.83;100.00;100923.72;5033814;28;20519;-71
2023/10/23 05:34:12;;;;;;;2.40;0.67;;;;;;;7.81;100.00;100932.09;5033930;28;20473;-70
2023/10/23 05:36:39;;;;;;;2.10;0.60;;;;;;;7.80;100.00;100927.78;5033773;28;20522;-71
2023/10/23 05:39:06;;;;;;;2.07;0.60;;;;;;;7.80;100.00;100935.09;5033454;28;20959;-70
2023/10/23 05:41:32;;;;;;;2.80;0.70;;;;;;;7.77;100.00;100939.13;5033660;28;20489;-70
2023/10/23 05:44:00;;;;;;;1.90;0.50;;;;;;;7.78;100.00;100938.03;5033633;28;20487;-71
2023/10/23 05:46:27;;;;;;;2.00;0.50;;;;;;;7.75;100.00;100946.69;5033863;28;20505;-71
2023/10/23 05:48:54;;;;;;;2.30;0.50;;;;;;;7.74;100.00;100950.44;5034128;28;20427;-71
2023/10/23 05:51:21;;;;;;;1.90;0.40;;;;;;;7.72;100.00;100947.22;5033899;28;20447;-71
2023/10/23 05:53:49;;;;;;;3.17;0.80;;;;;;;7.71;100.00;100951.00;5033538;28;20463;-72
2023/10/23 05:56:16;;;;;;;2.00;0.60;;;;;;;7.74;100.00;100955.03;5033782;28;20455;-73
2023/10/23 05:58:44;;;;;;;2.70;0.70;;;;;;;7.78;100.00;100950.72;5033286;28;20894;-73
2023/10/23 06:01:12;;;;;;;2.80;0.83;;;;;;;7.80;100.00;100954.75;5033783;28;20482;-74
2023/10/23 06:03:39;;;;;;;3.93;0.80;;;;;;;7.83;100.00;100962.31;5033451;28;20435;-73
2023/10/23 06:06:07;;;;;;;1.90;0.40;;;;;;;7.86;100.00;100952.84;5033609;28;20913;-73
2023/10/23 06:08:33;;;;;;;2.20;0.60;;;;;;;7.83;100.00;100965.00;5033511;28;20497;-74
2023/10/23 06:11:00;;;;;;;3.87;0.80;;;;;;;7.83;100.00;100956.91;5033547;28;20435;-73
2023/10/23 06:13:27;;;;;;;2.37;0.90;;;;;;;7.88;100.00;100958.78;5033335;28;20526;-73
2023/10/23 06:15:53;;;;;;;2.23;0.70;;;;;;;7.87;100.00;100962.56;5033193;28;20482;-73
2023/10/23 06:18:21;;;;;;;1.90;0.40;;;;;;;7.87;100.00;100969.84;5033316;28;20518;-73
2023/10/23 06:20:48;;;;;;;2.33;0.60;;;;;;;7.86;100.00;100963.63;5035285;28;20491;-72
2023/10/23 06:23:15;;;;;;;2.30;0.60;;;;;;;7.84;100.00;100966.63;5037393;28;20447;-72
2023/10/23 06:25:41;;;;;;;2.03;0.53;;;;;;;7.88;100.00;100971.44;5037460;28;20494;-72
2023/10/23 06:28:08;;;;;;;2.90;0.77;;;;;;;7.90;100.00;100974.69;5037094;28;20530;-71
2023/10/23 06:30:36;;;;;;;2.60;0.77;;;;;;;7.91;100.00;100976.31;5037537;28;20761;-71
2023/10/23 06:33:02;;;;;;;2.20;1.00;;;;;;;7.92;100.00;100975.22;5037114;28;20932;-71
2023/10/23 06:35:30;;;;;;;2.70;0.93;;;;;;;7.94;100.00;100973.88;5037302;28;20459;-71
2023/10/23 06:37:57;;;;;;;2.30;0.77;;;;;;;7.99;100.00;100983.84;5037038;28;20525;-68
2023/10/23 06:40:24;;;;;;;1.97;0.60;;;;;;;7.99;100.00;100975.75;5037574;28;20450;-69
2023/10/23 06:42:50;;;;;;;2.93;1.00;;;;;;;8.06;100.00;100970.88;5037022;28;20471;-70
2023/10/23 06:45:17;;;;;;;2.20;0.63;;;;;;;8.10;100.00;100982.72;5036924;28;20502;-71
2023/10/23 06:47:43;;;;;;;2.03;0.60;;;;;;;8.16;100.00;100984.34;5036507;28;20477;-71
2023/10/23 06:50:13;;;;;;;2.60;0.90;;;;;;;8.19;100.00;100970.31;5036730;28;20475;-72
2023/10/23 06:52:41;;;;;;;2.30;0.80;;;;;;;8.29;100.00;100958.66;5037007;28;20454;-72
2023/10/23 06:55:09;;;;;;;6.50;1.07;;;;;;;8.38;100.00;100969.72;5036456;28;21027;-71
2023/10/23 06:57:35;;;;;;;2.70;0.70;;;;;;;8.48;100.00;100964.25;5036987;28;20521;-71
2023/10/23 07:00:02;;;;;;;3.50;1.10;;;;;;;8.56;100.00;100977.19;5036289;28;20894;-72
2023/10/23 07:02:29;;;;;;;1.97;0.60;;;;;;;8.71;100.00;100974.41;5036803;28;20493;-72
2023/10/23 07:04:55;;;;;;;2.77;0.87;;;;;;;8.78;100.00;100983.00;5036595;28;20869;-71
2023/10/23 07:07:22;;;;;;;3.70;0.83;;;;;;;8.82;100.00;100983.25;5037020;28;20525;-71
2023/10/23 07:09:53;;;;;;;5.00;0.83;;;;;;;8.89;100.00;100983.75;5036472;28;20500;-71
2023/10/23 07:12:20;;;;;;;4.87;1.43;;;;;;;8.97;100.00;101003.97;5036123;28;20996;-71
2023/10/23 07:14:46;;;;;;;3.63;1.17;;;;;;;9.03;100.00;100997.44;5036657;28;20867;-71
2023/10/23 07:17:13;;;;;;;2.30;0.83;;;;;;;9.07;100.00;101002.03;5035997;28;20482;-71
2023/10/23 07:19:40;;;;;;;3.90;1.30;;;;;;;9.14;100.00;101003.59;5035988;28;20545;-71
2023/10/23 07:22:06;;;;;;;3.00;1.10;;;;;;;9.22;100.00;101009.22;5036218;28;20471;-71
2023/10/23 07:24:33;;;;;;;2.53;0.77;;;;;;;9.33;100.00;101009.91;5036196;28;20490;-71
2023/10/23 07:27:01;;;;;;;3.40;1.37;;;;;;;9.39;100.00;101005.31;5036172;28;20471;-71
2023/10/23 07:29:27;;;;;;;2.67;0.87;;;;;;;9.46;100.00;101005.78;5036202;28;20443;-71
2023/10/23 07:31:54;;;;;;;2.23;0.80;;;;;;;9.56;100.00;101011.91;5035650;28;20514;-71
2023/10/23 07:34:21;;;;;;;4.07;1.53;;;;;;;9.68;100.00;101018.84;5036011;28;20494;-71
2023/10/23 07:36:47;;;;;;;3.10;1.23;;;;;;;9.79;100.00;101009.56;5036088;28;20513;-71
2023/10/23 07:39:14;;;;;;;4.50;1.37;;;;;;;9.94;100.00;101011.28;5036292;28;20493;-71
2023/10/23 07:41:40;;;;;;;3.00;1.30;;;;;;;10.10;100.00;101020.88;5035849;28;20491;-69
2023/10/23 07:44:09;;;;;;;3.10;1.30;;;;;;;10.22;100.00;101023.16;5035893;28;20467;-74
2023/10/23 07:46:35;;;;;;;2.73;1.07;;;;;;;10.34;100.00;101027.13;5035834;28;20482;-74
2023/10/23 07:49:02;;;;;;;3.37;1.27;;;;;;;10.48;100.00;101024.53;5035992;28;20526;-75
2023/10/23 07:51:28;;;;;;;2.80;1.33;;;;;;;10.63;100.00;101028.16;5035973;28;20435;-74
2023/10/23 07:53:55;;;;;;;3.03;1.50;;;;;;;10.73;100.00;101026.13;5035264;28;20541;-74
2023/10/23 07:56:22;;;;;;;4.73;1.53;;;;;;;10.81;100.00;101030.88;5035929;28;20436;-74
2023/10/23 07:58:48;;;;;;;2.87;1.03;;;;;;;10.93;100.00;101033.16;5035513;28;20446;-74
2023/10/23 08:01:16;;;;;;;6.67;1.93;;;;;;;11.05;100.00;101030.00;5035358;28;20522;-74
2023/10/23 08:03:43;;;;;;;3.00;1.27;;;;;;;11.13;100.00;101028.56;5035368;28;20442;-74
2023/10/23 08:06:10;;;;;;;3.33;1.40;;;;;;;11.24;100.00;101038.13;5035297;28;20439;-74
2023/10/23 08:08:38;;;;;;;2.83;1.47;;;;;;;11.35;100.00;101040.41;5035398;28;20443;-74
2023/10/23 08:11:06;;;;;;;3.43;1.57;;;;;;;11.45;100.00;101038.63;5035332;28;20435;-74
2023/10/23 08:13:33;;;;;;;3.30;1.70;;;;;;;11.54;100.00;101045.00;5035293;28;20515;-74
2023/10/23 08:16:00;;;;;;;4.37;1.63;;;;;;;11.62;100.00;101041.63;5035508;28;20526;-70
2023/10/23 08:18:28;;;;;;;3.20;1.67;;;;;;;11.71;100.00;101050.69;5035208;28;20467;-69
2023/10/23 08:20:55;;;;;;;2.90;1.47;;;;;;;11.82;100.00;101045.88;5034656;28;20542;-71
2023/10/23 08:23:21;;;;;;;3.03;1.43;;;;;;;11.90;100.00;101042.53;5034794;28;20501;-75
2023/10/23 08:25:48;;;;;;;5.13;1.63;;;;;;;11.96;100.00;101037.81;5035012;28;20862;-74
2023/10/23 08:28:15;;;;;;;2.50;1.10;;;;;;;12.02;100.00;101039.34;5034824;28;20528;-74
2023/10/23 08:30:41;;;;;;;2.40;1.00;;;;;;;12.09;100.00;101048.72;5035233;28;20498;-71
2023/10/23 08:33:09;;;;;;;5.90;1.60;;;;;;;12.19;100.00;101042.28;5035106;28;20795;-74
2023/10/23 08:35:37;;;;;;;5.20;2.13;;;;;;;12.30;100.00;101043.69;5034874;28;20459;-74
2023/10/23 08:38:04;;;;;;;4.13;2.00;;;;;;;12.45;100.00;101044.50;5034805;28;20447;-74
2023/10/23 08:40:31;;;;;;;4.50;2.03;;;;;;;12.61;100.00;101049.31;5034940;28;20546;-74
2023/10/23 08:42:58;;;;;;;3.73;1.70;;;;;;;12.71;100.00;101050.25;5034011;28;20585;-74
2023/10/23 08:45:25;;;;;;;4.50;2.03;;;;;;;12.75;100.00;101060.19;5034986;28;20505;-74
2023/10/23 08:47:51;;;;;;;6.30;2.20;;;;;;;12.84;100.00;101052.13;5034927;28;20435;-74
2023/10/23 08:50:18;;;;;;;4.80;1.60;;;;;;;12.89;100.00;101057.47;5034547;28;20482;-74
2023/10/23 08:52:56;;;;;;;6.10;2.53;;;;;;;12.88;100.00;101053.94;5034579;28;20482;-74
2023/10/23 08:55:25;;;;;;;3.80;1.37;;;;;;;12.86;100.00;101058.84;5034025;28;21046;-74
2023/10/23 08:57:54;;;;;;;4.37;2.20;;;;;;;12.92;100.00;101059.53;5034685;28;20447;-72
2023/10/23 09:00:22;;;;;;;3.70;1.97;;;;;;;12.93;100.00;101058.47;5034615;28;20439;-74
2023/10/23 09:02:49;;;;;;;6.27;2.10;;;;;;;12.94;100.00;101064.69;5034241;28;20490;-74
2023/10/23 09:05:15;;;;;;;6.07;2.77;;;;;;;13.00;100.00;101055.31;5033919;28;20463;-74
2023/10/23 09:07:42;;;;;;;4.43;2.07;;;;;;;13.06;100.00;101056.81;5034253;28;20526;-74
2023/10/23 09:10:10;;;;;;;3.97;1.93;;;;;;;13.11;100.00;101056.72;5034108;28;20853;-74
2023/10/23 09:12:39;;;;;;;4.50;2.07;;;;;;;13.23;100.00;101059.69;5034495;28;20446;-74
2023/10/23 09:15:16;;;;;;;4.80;1.90;;;;;;;13.37;100.00;101057.75;5033701;28;20979;-74
2023/10/23 09:17:43;;;;;;;5.33;1.87;;;;;;;13.55;100.00;101049.72;5034040;28;20808;-74
2023/10/23 09:20:26;;;;;;;4.47;2.10;;;;;;;13.70;100.00;101052.06;5033742;28;20577;-74
2023/10/23 09:22:54;;;;;;;3.13;1.37;;;;;;;13.88;100.00;101058.41;5031510;28;20578;-74
2023/10/23 09:25:23;;;;;;;4.50;2.10;;;;;;;13.98;100.00;101049.97;5033811;28;20457;-74
2023/10/23 09:27:50;;;;;;;3.87;1.60;;;;;;;14.10;100.00;101047.47;5033837;28;20439;-74
2023/10/23 09:30:21;;;;;;;5.67;2.13;;;;;;;14.18;100.00;101051.38;5033503;28;20943;-74
2023/10/23 09:32:50;;;;;;;3.80;2.17;;;;;;;14.27;100.00;101048.69;5033593;28;20462;-74
2023/10/23 09:35:17;;;;;;;3.67;2.10;;;;;;;14.36;100.00;101050.31;5033284;28;20465;-74
2023/10/23 09:37:44;;;;;;;3.50;1.57;;;;;;;14.50;100.00;101042.06;5033981;28;20451;-74
2023/10/23 09:40:11;;;;;;;4.77;2.20;;;;;;;14.68;99.33;101040.19;5033363;28;20550;-74
2023/10/23 09:42:40;;;;;;;4.60;2.20;;;;;;;14.87;99.25;101042.63;5033532;28;20478;-74
2023/10/23 09:45:08;;;;;;;4.80;2.07;;;;;;;14.93;98.49;101037.84;5033561;28;20451;-74
2023/10/23 09:47:35;;;;;;;4.57;2.00;;;;;;;15.03;97.02;101051.16;5033553;28;20481;-74
2023/10/23 09:50:03;;;;;;;4.73;2.10;;;;;;;15.03;97.21;101054.69;5033464;28;20439;-74
2023/10/23 09:52:33;;;;;;;3.40;1.57;;;;;;;15.08;97.19;101054.53;5033345;28;20546;-74
2023/10/23 09:55:02;;;;;;;3.27;1.80;;;;;;;15.08;96.64;101051.81;5033306;28;20546;-74
2023/10/23 09:57:34;;;;;;;5.53;2.33;;;;;;;15.06;96.95;101047.81;5033517;28;20458;-74
2023/10/23 10:00:13;;;;;;;4.13;2.10;;;;;;;14.98;96.99;101051.31;5033719;28;20432;-74
2023/10/23 10:02:40;;;;;;;4.20;2.00;;;;;;;14.88;97.05;101046.97;5033132;28;20467;-74
2023/10/23 10:05:09;;;;;;;3.60;1.80;;;;;;;14.86;96.88;101047.28;5032863;28;20494;-74
2023/10/23 10:07:47;;;;;;;5.43;1.90;;;;;;;14.87;97.37;101039.91;5032874;28;20519;-74
2023/10/23 10:10:15;;;;;;;3.73;2.00;;;;;;;14.85;97.58;101045.69;5033784;28;20427;-74
2023/10/23 10:12:43;;;;;;;3.90;1.63;;;;;;;14.77;97.71;101035.56;5033049;28;20503;-74
2023/10/23 10:15:11;;;;;;;2.93;1.47;;;;;;;14.83;98.06;101031.56;5033074;28;20470;-74
2023/10/23 10:17:39;;;;;;;4.10;1.80;;;;;;;14.83;98.10;101038.91;5033938;28;20813;-74
2023/10/23 10:20:08;;;;;;;2.93;1.43;;;;;;;14.89;97.83;101037.66;5047922;23;20495;-70
2023/10/23 10:22:36;;;;;;;4.03;2.03;;;;;;;14.94;97.11;101033.97;5033142;28;20486;-70
2023/10/23 10:25:05;;;;;;;5.47;2.40;;;;;;;14.93;97.51;101035.13;5033506;28;20466;-72
2023/10/23 10:27:31;;;;;;;4.30;2.20;;;;;;;15.04;96.28;101034.47;5033188;28;20447;-71
2023/10/23 10:30:00;;;;;;;4.23;2.10;;;;;;;15.10;95.88;101032.41;5033101;28;20500;-72
2023/10/23 10:32:28;;;;;;;4.80;2.00;;;;;;;15.24;95.44;101035.78;5033627;28;20471;-72
2023/10/23 10:34:56;;;;;;;3.30;1.40;;;;;;;15.35;95.64;101026.13;5033336;28;20547;-72
2023/10/23 10:37:25;;;;;;;4.17;2.07;;;;;;;15.43;95.33;101023.72;5034089;28;20450;-73
2023/10/23 10:40:11;;;;;;;4.70;2.13;;;;;;;15.54;94.86;101033.19;5034041;28;20479;-73
2023/10/23 10:42:40;;;;;;;6.17;1.80;;;;;;;15.57;94.88;101032.53;5032850;28;20467;-72
2023/10/23 10:45:16;;;;;;;5.13;2.07;;;;;;;15.57;93.56;101033.31;5033378;28;20542;-72
2023/10/23 10:47:48;;;;;;;4.57;1.97;;;;;;;15.59;92.63;101033.81;5033903;28;20438;-73
2023/10/23 10:50:31;;;;;;;6.30;1.93;;;;;;;15.58;91.27;101032.22;5033714;28;20424;-72
2023/10/23 10:53:02;;;;;;;4.10;1.53;;;;;;;15.59;90.50;101031.09;5033704;28;20442;-73
2023/10/23 10:55:28;;;;;;;4.40;2.20;;;;;;;15.59;91.43;101022.91;5033768;28;20463;-72
2023/10/23 10:57:56;;;;;;;4.60;2.00;;;;;;;15.55;91.07;101029.31;5034737;28;20534;-73
2023/10/23 11:00:23;;;;;;;4.20;1.80;;;;;;;15.43;91.09;101020.97;5034243;28;20574;-72
2023/10/23 11:02:52;;;;;;;4.93;2.00;;;;;;;15.37;91.52;101021.16;5034057;28;20857;-73
2023/10/23 11:05:18;;;;;;;3.17;1.30;;;;;;;15.25;92.55;101015.53;5033761;28;20455;-75
2023/10/23 11:07:47;;;;;;;12.23;2.03;;;;;;;15.19;93.69;101013.31;5037040;28;20936;-74
2023/10/23 11:10:14;;;;;;;4.13;1.90;;;;;;;15.21;93.38;101009.13;5036841;28;20450;-75
2023/10/23 11:12:41;;;;;;;5.10;1.53;;;;;;;15.27;92.98;101010.56;5037024;28;20526;-76
2023/10/23 11:15:09;;;;;;;3.63;1.53;;;;;;;15.61;92.79;101008.91;5036971;28;20545;-76
2023/10/23 11:17:37;;;;;;;3.33;1.47;;;;;;;15.88;90.06;101005.00;5036484;28;20959;-76
2023/10/23 11:20:08;;;;;;;3.77;1.20;;;;;;;16.12;89.89;101002.53;5036726;28;20818;-75
2023/10/23 11:22:36;;;;;;;3.37;1.40;;;;;;;16.40;90.61;101013.78;5036192;28;20495;-75